sensor_id;sensor_type;location;lat;lon;timestamp;P1;durP1;ratioP1;P2;durP2;ratioP2
7983;SDS011;4037;47.980;10.172;2023-08-31T01:37:44;5.57;;;3.70;;
7983;SDS011;4037;47.980;10.172;2023-08-31T01:40:14;4.67;;;3.90;;
7983;SDS011;4037;47.980;10.172;2023-08-31T01:42:42;4.33;;;3.90;;
7983;SDS011;4037;47.980;10.172;2023-08-31T01:45:10;4.70;;;3.67;;
7983;SDS011;4037;47.980;10.172;2023-08-31T01:47:36;5.10;;;3.93;;
7983;SDS011;4037;47.980;10.172;2023-08-31T01:50:03;3.67;;;3.17;;
7983;SDS011;4037;47.980;10.172;2023-08-31T01:52:29;3.50;;;3.07;;
7983;SDS011;4037;47.980;10.172;2023-08-31T01:54:55;5.70;;;3.13;;
7983;SDS011;4037;47.980;10.172;2023-08-31T01:57:21;4.10;;;3.50;;
7983;SDS011;4037;47.980;10.172;2023-08-31T01:59:47;3.63;;;3.33;;
7983;SDS011;4037;47.980;10.172;2023-08-31T02:02:13;3.20;;;2.90;;
7983;SDS011;4037;47.980;10.172;2023-08-31T02:04:39;2.47;;;2.27;;
7983;SDS011;4037;47.980;10.172;2023-08-31T02:07:05;3.23;;;2.70;;
7983;SDS011;4037;47.980;10.172;2023-08-31T02:09:31;2.63;;;2.40;;
7983;SDS011;4037;47.980;10.172;2023-08-31T02:11:57;2.37;;;2.17;;
7983;SDS011;4037;47.980;10.172;2023-08-31T02:14:24;4.13;;;2.80;;
7983;SDS011;4037;47.980;10.172;2023-08-31T02:16:50;2.47;;;2.07;;
7983;SDS011;4037;47.980;10.172;2023-08-31T02:19:16;2.53;;;2.20;;
7983;SDS011;4037;47.980;10.172;2023-08-31T02:21:42;2.53;;;1.90;;
7983;SDS011;4037;47.980;10.172;2023-08-31T02:24:08;2.47;;;2.23;;
7983;SDS011;4037;47.980;10.172;2023-08-31T02:26:37;2.53;;;2.03;;
7983;SDS011;4037;47.980;10.172;2023-08-31T02:29:03;2.00;;;1.80;;
7983;SDS011;4037;47.980;10.172;2023-08-31T02:31:29;2.90;;;1.80;;
7983;SDS011;4037;47.980;10.172;2023-08-31T02:33:55;2.50;;;1.80;;
7983;SDS011;4037;47.980;10.172;2023-08-31T02:36:21;2.37;;;1.73;;
7983;SDS011;4037;47.980;10.172;2023-08-31T02:38:47;1.90;;;1.80;;
7983;SDS011;4037;47.980;10.172;2023-08-31T02:41:15;1.80;;;1.47;;
7983;SDS011;4037;47.980;10.172;2023-08-31T02:43:42;1.40;;;1.30;;
7983;SDS011;4037;47.980;10.172;2023-08-31T02:46:08;1.60;;;1.47;;
7983;SDS011;4037;47.980;10.172;2023-08-31T02:48:34;1.60;;;1.50;;
7983;SDS011;4037;47.980;10.172;2023-08-31T02:51:00;1.73;;;1.63;;
7983;SDS011;4037;47.980;10.172;2023-08-31T02:53:27;1.83;;;1.60;;
7983;SDS011;4037;47.980;10.172;2023-08-31T02:55:53;2.27;;;1.70;;
7983;SDS011;4037;47.980;10.172;2023-08-31T02:58:19;1.67;;;1.40;;
7983;SDS011;4037;47.980;10.172;2023-08-31T03:00:45;1.60;;;1.50;;
7983;SDS011;4037;47.980;10.172;2023-08-31T03:03:16;1.87;;;1.67;;
7983;SDS011;4037;47.980;10.172;2023-08-31T03:05:42;3.00;;;2.00;;
7983;SDS011;4037;47.980;10.172;2023-08-31T03:08:08;1.90;;;1.70;;
7983;SDS011;4037;47.980;10.172;2023-08-31T03:10:34;2.23;;;1.90;;
7983;SDS011;4037;47.980;10.172;2023-08-31T03:13:01;2.50;;;2.17;;
7983;SDS011;4037;47.980;10.172;2023-08-31T03:15:27;2.20;;;2.00;;
7983;SDS011;4037;47.980;10.172;2023-08-31T03:17:53;2.53;;;2.33;;
7983;SDS011;4037;47.980;10.172;2023-08-31T03:20:19;2.60;;;2.40;;
7983;SDS011;4037;47.980;10.172;2023-08-31T03:22:45;2.73;;;2.50;;
7983;SDS011;4037;47.980;10.172;2023-08-31T03:25:11;2.50;;;2.30;;
7983;SDS011;4037;47.980;10.172;2023-08-31T03:27:37;3.93;;;2.37;;
7983;SDS011;4037;47.980;10.172;2023-08-31T03:30:03;2.83;;;2.57;;
7983;SDS011;4037;47.980;10.172;2023-08-31T03:32:30;2.60;;;2.40;;
7983;SDS011;4037;47.980;10.172;2023-08-31T03:34:56;2.60;;;2.40;;
7983;SDS011;4037;47.980;10.172;2023-08-31T03:37:22;3.20;;;2.83;;
7983;SDS011;4037;47.980;10.172;2023-08-31T03:39:48;3.13;;;2.73;;
7983;SDS011;4037;47.980;10.172;2023-08-31T03:42:14;2.77;;;2.43;;
7983;SDS011;4037;47.980;10.172;2023-08-31T03:44:40;3.03;;;2.80;;
7983;SDS011;4037;47.980;10.172;2023-08-31T03:47:06;2.83;;;2.63;;
7983;SDS011;4037;47.980;10.172;2023-08-31T03:49:32;2.63;;;2.43;;
7983;SDS011;4037;47.980;10.172;2023-08-31T03:51:59;3.80;;;2.83;;
7983;SDS011;4037;47.980;10.172;2023-08-31T03:54:25;2.70;;;2.37;;
7983;SDS011;4037;47.980;10.172;2023-08-31T03:56:51;2.90;;;2.50;;
7983;SDS011;4037;47.980;10.172;2023-08-31T03:59:17;2.60;;;2.27;;
7983;SDS011;4037;47.980;10.172;2023-08-31T04:01:43;3.77;;;2.47;;
7983;SDS011;4037;47.980;10.172;2023-08-31T04:04:10;4.63;;;2.43;;
7983;SDS011;4037;47.980;10.172;2023-08-31T04:06:36;2.60;;;1.93;;
7983;SDS011;4037;47.980;10.172;2023-08-31T04:09:02;2.80;;;2.00;;
7983;SDS011;4037;47.980;10.172;2023-08-31T04:11:28;2.30;;;2.10;;
7983;SDS011;4037;47.980;10.172;2023-08-31T04:13:54;3.83;;;1.83;;
7983;SDS011;4037;47.980;10.172;2023-08-31T04:16:20;1.83;;;1.73;;
7983;SDS011;4037;47.980;10.172;2023-08-31T04:18:46;2.07;;;1.90;;
7983;SDS011;4037;47.980;10.172;2023-08-31T04:21:16;2.77;;;1.90;;
7983;SDS011;4037;47.980;10.172;2023-08-31T04:23:43;2.27;;;2.03;;
7983;SDS011;4037;47.980;10.172;2023-08-31T04:26:10;2.63;;;2.40;;
7983;SDS011;4037;47.980;10.172;2023-08-31T04:28:37;2.33;;;1.97;;
7983;SDS011;4037;47.980;10.172;2023-08-31T04:31:06;2.00;;;1.80;;
7983;SDS011;4037;47.980;10.172;2023-08-31T04:33:36;2.70;;;2.33;;
7983;SDS011;4037;47.980;10.172;2023-08-31T04:36:03;3.83;;;2.00;;
7983;SDS011;4037;47.980;10.172;2023-08-31T04:38:30;2.03;;;1.80;;
7983;SDS011;4037;47.980;10.172;2023-08-31T04:40:58;2.33;;;2.10;;
7983;SDS011;4037;47.980;10.172;2023-08-31T04:43:24;2.70;;;2.03;;
7983;SDS011;4037;47.980;10.172;2023-08-31T04:45:53;2.40;;;1.83;;
7983;SDS011;4037;47.980;10.172;2023-08-31T04:48:19;2.40;;;2.20;;
7983;SDS011;4037;47.980;10.172;2023-08-31T04:50:46;2.67;;;2.30;;
7983;SDS011;4037;47.980;10.172;2023-08-31T04:53:12;2.67;;;2.07;;
7983;SDS011;4037;47.980;10.172;2023-08-31T04:55:38;2.50;;;1.70;;
7983;SDS011;4037;47.980;10.172;2023-08-31T04:58:04;2.00;;;1.57;;
7983;SDS011;4037;47.980;10.172;2023-08-31T05:00:30;2.40;;;2.00;;
7983;SDS011;4037;47.980;10.172;2023-08-31T05:02:56;2.93;;;2.30;;
7983;SDS011;4037;47.980;10.172;2023-08-31T05:05:23;2.33;;;2.13;;
7983;SDS011;4037;47.980;10.172;2023-08-31T05:07:49;2.50;;;2.30;;
7983;SDS011;4037;47.980;10.172;2023-08-31T05:10:15;2.30;;;1.97;;
7983;SDS011;4037;47.980;10.172;2023-08-31T05:12:41;3.00;;;2.10;;
7983;SDS011;4037;47.980;10.172;2023-08-31T05:15:08;3.00;;;1.97;;
7983;SDS011;4037;47.980;10.172;2023-08-31T05:17:34;3.00;;;2.17;;
7983;SDS011;4037;47.980;10.172;2023-08-31T05:20:00;2.20;;;2.00;;
7983;SDS011;4037;47.980;10.172;2023-08-31T05:22:29;2.17;;;1.90;;
7983;SDS011;4037;47.980;10.172;2023-08-31T05:24:55;2.67;;;2.47;;
7983;SDS011;4037;47.980;10.172;2023-08-31T05:27:21;4.37;;;2.60;;
7983;SDS011;4037;47.980;10.172;2023-08-31T05:29:47;3.77;;;2.40;;
7983;SDS011;4037;47.980;10.172;2023-08-31T05:32:14;2.60;;;2.40;;
7983;SDS011;4037;47.980;10.172;2023-08-31T05:34:40;3.37;;;2.47;;
7983;SDS011;4037;47.980;10.172;2023-08-31T05:37:06;3.23;;;2.30;;
7983;SDS011;4037;47.980;10.172;2023-08-31T05:39:32;3.80;;;2.47;;
7983;SDS011;4037;47.980;10.172;2023-08-31T05:41:58;3.93;;;2.83;;
7983;SDS011;4037;47.980;10.172;2023-08-31T05:44:24;3.03;;;2.20;;
7983;SDS011;4037;47.980;10.172;2023-08-31T05:46:50;6.20;;;2.60;;
7983;SDS011;4037;47.980;10.172;2023-08-31T05:49:16;2.70;;;2.40;;
7983;SDS011;4037;47.980;10.172;2023-08-31T05:51:42;5.67;;;2.70;;
7983;SDS011;4037;47.980;10.172;2023-08-31T05:54:08;5.07;;;2.97;;
7983;SDS011;4037;47.980;10.172;2023-08-31T05:56:37;2.33;;;2.13;;
7983;SDS011;4037;47.980;10.172;2023-08-31T05:59:04;2.87;;;2.57;;
7983;SDS011;4037;47.980;10.172;2023-08-31T06:01:30;3.20;;;2.57;;
7983;SDS011;4037;47.980;10.172;2023-08-31T06:03:57;3.07;;;2.17;;
7983;SDS011;4037;47.980;10.172;2023-08-31T06:06:23;3.87;;;2.53;;
7983;SDS011;4037;47.980;10.172;2023-08-31T06:08:49;3.43;;;2.77;;
7983;SDS011;4037;47.980;10.172;2023-08-31T06:11:15;3.10;;;2.57;;
7983;SDS011;4037;47.980;10.172;2023-08-31T06:13:41;3.50;;;2.70;;
7983;SDS011;4037;47.980;10.172;2023-08-31T06:16:10;5.10;;;2.93;;
7983;SDS011;4037;47.980;10.172;2023-08-31T06:18:37;3.00;;;2.10;;
7983;SDS011;4037;47.980;10.172;2023-08-31T06:21:03;4.03;;;2.73;;
7983;SDS011;4037;47.980;10.172;2023-08-31T06:23:29;3.97;;;2.53;;
7983;SDS011;4037;47.980;10.172;2023-08-31T06:25:55;3.47;;;2.63;;
7983;SDS011;4037;47.980;10.172;2023-08-31T06:28:21;4.97;;;2.60;;
7983;SDS011;4037;47.980;10.172;2023-08-31T06:30:47;3.73;;;2.63;;
7983;SDS011;4037;47.980;10.172;2023-08-31T06:33:17;3.73;;;3.03;;
7983;SDS011;4037;47.980;10.172;2023-08-31T06:35:46;4.50;;;2.53;;
7983;SDS011;4037;47.980;10.172;2023-08-31T06:38:16;3.97;;;2.90;;
7983;SDS011;4037;47.980;10.172;2023-08-31T06:40:42;4.27;;;3.03;;
7983;SDS011;4037;47.980;10.172;2023-08-31T06:43:09;3.50;;;2.77;;
7983;SDS011;4037;47.980;10.172;2023-08-31T06:45:35;5.23;;;2.77;;
7983;SDS011;4037;47.980;10.172;2023-08-31T06:48:01;5.50;;;2.40;;
7983;SDS011;4037;47.980;10.172;2023-08-31T06:50:28;3.30;;;2.87;;
7983;SDS011;4037;47.980;10.172;2023-08-31T06:52:54;4.37;;;2.87;;
7983;SDS011;4037;47.980;10.172;2023-08-31T06:55:20;4.83;;;2.97;;
7983;SDS011;4037;47.980;10.172;2023-08-31T06:57:46;3.30;;;3.00;;
7983;SDS011;4037;47.980;10.172;2023-08-31T07:00:12;4.20;;;3.37;;
7983;SDS011;4037;47.980;10.172;2023-08-31T07:02:41;5.70;;;3.77;;
7983;SDS011;4037;47.980;10.172;2023-08-31T07:05:09;4.67;;;3.27;;
7983;SDS011;4037;47.980;10.172;2023-08-31T07:07:35;6.77;;;3.73;;
7983;SDS011;4037;47.980;10.172;2023-08-31T07:10:01;4.20;;;3.63;;
7983;SDS011;4037;47.980;10.172;2023-08-31T07:12:27;4.57;;;3.20;;
7983;SDS011;4037;47.980;10.172;2023-08-31T07:14:53;3.53;;;2.87;;
7983;SDS011;4037;47.980;10.172;2023-08-31T07:17:19;5.77;;;3.90;;
7983;SDS011;4037;47.980;10.172;2023-08-31T07:19:46;3.90;;;3.47;;
7983;SDS011;4037;47.980;10.172;2023-08-31T07:22:12;6.87;;;3.70;;
7983;SDS011;4037;47.980;10.172;2023-08-31T07:24:38;5.30;;;4.40;;
7983;SDS011;4037;47.980;10.172;2023-08-31T07:27:04;4.60;;;4.13;;
7983;SDS011;4037;47.980;10.172;2023-08-31T07:29:30;5.53;;;3.90;;
7983;SDS011;4037;47.980;10.172;2023-08-31T07:31:57;5.93;;;3.53;;
7983;SDS011;4037;47.980;10.172;2023-08-31T07:34:23;4.63;;;2.83;;
7983;SDS011;4037;47.980;10.172;2023-08-31T07:36:49;3.20;;;2.40;;
7983;SDS011;4037;47.980;10.172;2023-08-31T07:39:15;5.07;;;2.87;;
7983;SDS011;4037;47.980;10.172;2023-08-31T07:41:44;6.80;;;3.17;;
7983;SDS011;4037;47.980;10.172;2023-08-31T07:44:11;2.77;;;2.40;;
7983;SDS011;4037;47.980;10.172;2023-08-31T07:46:37;2.50;;;2.30;;
7983;SDS011;4037;47.980;10.172;2023-08-31T07:49:03;2.67;;;2.20;;
7983;SDS011;4037;47.980;10.172;2023-08-31T07:51:29;4.13;;;2.27;;
7983;SDS011;4037;47.980;10.172;2023-08-31T07:53:55;3.90;;;2.13;;
7983;SDS011;4037;47.980;10.172;2023-08-31T07:56:22;3.70;;;2.90;;
7983;SDS011;4037;47.980;10.172;2023-08-31T07:58:49;2.33;;;1.73;;
7983;SDS011;4037;47.980;10.172;2023-08-31T08:01:15;2.83;;;1.90;;
7983;SDS011;4037;47.980;10.172;2023-08-31T08:03:41;2.23;;;2.03;;
7983;SDS011;4037;47.980;10.172;2023-08-31T08:06:07;2.13;;;1.80;;
7983;SDS011;4037;47.980;10.172;2023-08-31T08:08:33;1.73;;;1.57;;
7983;SDS011;4037;47.980;10.172;2023-08-31T08:10:59;2.53;;;1.50;;
7983;SDS011;4037;47.980;10.172;2023-08-31T08:13:25;4.47;;;2.00;;
7983;SDS011;4037;47.980;10.172;2023-08-31T08:15:51;2.97;;;1.60;;
7983;SDS011;4037;47.980;10.172;2023-08-31T08:18:17;2.77;;;1.50;;
7983;SDS011;4037;47.980;10.172;2023-08-31T08:20:46;2.50;;;1.60;;
7983;SDS011;4037;47.980;10.172;2023-08-31T08:23:12;1.90;;;1.50;;
7983;SDS011;4037;47.980;10.172;2023-08-31T08:25:38;1.63;;;1.50;;
7983;SDS011;4037;47.980;10.172;2023-08-31T08:28:04;2.70;;;1.80;;
7983;SDS011;4037;47.980;10.172;2023-08-31T08:30:30;4.47;;;1.77;;
7983;SDS011;4037;47.980;10.172;2023-08-31T08:32:57;4.00;;;1.77;;
7983;SDS011;4037;47.980;10.172;2023-08-31T08:35:23;1.90;;;1.73;;
7983;SDS011;4037;47.980;10.172;2023-08-31T08:37:50;4.80;;;1.70;;
7983;SDS011;4037;47.980;10.172;2023-08-31T08:40:16;5.00;;;1.60;;
7983;SDS011;4037;47.980;10.172;2023-08-31T08:42:43;2.10;;;1.37;;
7983;SDS011;4037;47.980;10.172;2023-08-31T08:45:12;2.17;;;1.77;;
7983;SDS011;4037;47.980;10.172;2023-08-31T08:47:42;4.10;;;1.80;;
7983;SDS011;4037;47.980;10.172;2023-08-31T08:50:09;2.03;;;1.77;;
7983;SDS011;4037;47.980;10.172;2023-08-31T08:52:35;4.50;;;1.60;;
7983;SDS011;4037;47.980;10.172;2023-08-31T08:55:01;2.07;;;1.40;;
7983;SDS011;4037;47.980;10.172;2023-08-31T08:57:28;3.20;;;1.87;;
7983;SDS011;4037;47.980;10.172;2023-08-31T08:59:54;5.10;;;1.83;;
7983;SDS011;4037;47.980;10.172;2023-08-31T09:02:20;2.60;;;1.53;;
7983;SDS011;4037;47.980;10.172;2023-08-31T09:04:47;3.03;;;1.70;;
7983;SDS011;4037;47.980;10.172;2023-08-31T09:07:13;2.43;;;1.80;;
7983;SDS011;4037;47.980;10.172;2023-08-31T09:09:52;2.57;;;1.87;;
7983;SDS011;4037;47.980;10.172;2023-08-31T09:12:20;2.13;;;1.60;;
7983;SDS011;4037;47.980;10.172;2023-08-31T09:17:24;2.70;;;1.70;;
7983;SDS011;4037;47.980;10.172;2023-08-31T09:20:00;2.20;;;1.67;;
7983;SDS011;4037;47.980;10.172;2023-08-31T09:22:28;3.00;;;2.07;;
7983;SDS011;4037;47.980;10.172;2023-08-31T09:24:54;3.27;;;1.60;;
7983;SDS011;4037;47.980;10.172;2023-08-31T09:27:20;3.37;;;1.60;;
7983;SDS011;4037;47.980;10.172;2023-08-31T09:29:48;2.17;;;1.50;;
7983;SDS011;4037;47.980;10.172;2023-08-31T09:32:17;2.03;;;1.57;;
7983;SDS011;4037;47.980;10.172;2023-08-31T09:34:43;1.57;;;1.20;;
7983;SDS011;4037;47.980;10.172;2023-08-31T09:37:10;3.03;;;1.50;;
7983;SDS011;4037;47.980;10.172;2023-08-31T09:39:36;2.63;;;1.80;;
7983;SDS011;4037;47.980;10.172;2023-08-31T09:42:02;3.90;;;1.50;;
7983;SDS011;4037;47.980;10.172;2023-08-31T09:44:29;2.80;;;1.60;;
7983;SDS011;4037;47.980;10.172;2023-08-31T09:46:55;5.00;;;2.00;;
7983;SDS011;4037;47.980;10.172;2023-08-31T09:49:21;1.73;;;1.50;;
7983;SDS011;4037;47.980;10.172;2023-08-31T09:51:51;2.87;;;1.77;;
7983;SDS011;4037;47.980;10.172;2023-08-31T09:54:20;3.40;;;1.60;;
7983;SDS011;4037;47.980;10.172;2023-08-31T09:56:48;2.97;;;1.83;;
7983;SDS011;4037;47.980;10.172;2023-08-31T09:59:14;6.17;;;1.60;;
7983;SDS011;4037;47.980;10.172;2023-08-31T10:01:41;2.47;;;1.53;;
7983;SDS011;4037;47.980;10.172;2023-08-31T10:04:08;1.87;;;1.60;;
7983;SDS011;4037;47.980;10.172;2023-08-31T10:06:35;1.90;;;1.70;;
7983;SDS011;4037;47.980;10.172;2023-08-31T10:09:01;2.17;;;1.53;;
7983;SDS011;4037;47.980;10.172;2023-08-31T10:11:27;3.07;;;1.70;;
7983;SDS011;4037;47.980;10.172;2023-08-31T10:13:54;2.40;;;1.73;;
7983;SDS011;4037;47.980;10.172;2023-08-31T10:16:21;3.90;;;1.90;;
7983;SDS011;4037;47.980;10.172;2023-08-31T10:18:47;3.57;;;2.10;;
7983;SDS011;4037;47.980;10.172;2023-08-31T10:21:17;3.70;;;1.93;;
7983;SDS011;4037;47.980;10.172;2023-08-31T10:23:47;4.90;;;1.80;;
7983;SDS011;4037;47.980;10.172;2023-08-31T10:26:22;4.10;;;1.87;;
7983;SDS011;4037;47.980;10.172;2023-08-31T10:28:48;3.37;;;2.10;;
7983;SDS011;4037;47.980;10.172;2023-08-31T10:31:15;3.07;;;1.80;;
7983;SDS011;4037;47.980;10.172;2023-08-31T10:34:01;10.17;;;2.93;;
7983;SDS011;4037;47.980;10.172;2023-08-31T10:36:40;8.00;;;3.10;;
7983;SDS011;4037;47.980;10.172;2023-08-31T10:39:13;2.57;;;1.83;;
7983;SDS011;4037;47.980;10.172;2023-08-31T10:41:41;5.67;;;2.07;;
7983;SDS011;4037;47.980;10.172;2023-08-31T10:44:20;2.20;;;1.70;;
7983;SDS011;4037;47.980;10.172;2023-08-31T10:46:46;3.00;;;1.60;;
7983;SDS011;4037;47.980;10.172;2023-08-31T10:51:43;4.20;;;1.70;;
7983;SDS011;4037;47.980;10.172;2023-08-31T10:54:19;1.60;;;1.50;;
7983;SDS011;4037;47.980;10.172;2023-08-31T10:59:20;3.00;;;1.87;;
7983;SDS011;4037;47.980;10.172;2023-08-31T11:01:53;3.63;;;1.70;;
7983;SDS011;4037;47.980;10.172;2023-08-31T11:04:23;2.10;;;1.50;;
7983;SDS011;4037;47.980;10.172;2023-08-31T11:07:09;2.70;;;1.50;;
7983;SDS011;4037;47.980;10.172;2023-08-31T11:09:35;2.87;;;1.90;;
7983;SDS011;4037;47.980;10.172;2023-08-31T11:12:01;2.00;;;1.43;;
7983;SDS011;4037;47.980;10.172;2023-08-31T11:14:27;2.27;;;1.50;;
7983;SDS011;4037;47.980;10.172;2023-08-31T11:16:53;4.57;;;1.70;;
7983;SDS011;4037;47.980;10.172;2023-08-31T11:19:20;3.03;;;1.70;;
7983;SDS011;4037;47.980;10.172;2023-08-31T11:21:46;1.53;;;1.37;;
7983;SDS011;4037;47.980;10.172;2023-08-31T11:24:12;2.27;;;1.60;;
7983;SDS011;4037;47.980;10.172;2023-08-31T11:26:38;3.77;;;1.67;;
7983;SDS011;4037;47.980;10.172;2023-08-31T11:29:07;2.10;;;1.60;;
7983;SDS011;4037;47.980;10.172;2023-08-31T11:31:37;7.40;;;1.67;;
7983;SDS011;4037;47.980;10.172;2023-08-31T11:34:05;2.80;;;1.80;;
7983;SDS011;4037;47.980;10.172;2023-08-31T11:36:32;3.57;;;1.70;;
7983;SDS011;4037;47.980;10.172;2023-08-31T11:38:58;3.87;;;2.43;;
7983;SDS011;4037;47.980;10.172;2023-08-31T11:41:24;1.97;;;1.43;;
7983;SDS011;4037;47.980;10.172;2023-08-31T11:43:50;2.30;;;1.80;;
7983;SDS011;4037;47.980;10.172;2023-08-31T11:46:16;3.33;;;2.00;;
7983;SDS011;4037;47.980;10.172;2023-08-31T11:48:43;2.90;;;1.30;;
7983;SDS011;4037;47.980;10.172;2023-08-31T11:51:10;2.10;;;1.40;;
7983;SDS011;4037;47.980;10.172;2023-08-31T11:53:36;5.50;;;1.80;;
7983;SDS011;4037;47.980;10.172;2023-08-31T11:56:02;3.87;;;1.57;;
7983;SDS011;4037;47.980;10.172;2023-08-31T11:58:29;2.07;;;1.60;;
7983;SDS011;4037;47.980;10.172;2023-08-31T12:00:58;2.10;;;1.43;;
7983;SDS011;4037;47.980;10.172;2023-08-31T12:03:24;2.80;;;1.70;;
7983;SDS011;4037;47.980;10.172;2023-08-31T12:05:51;2.43;;;1.63;;
7983;SDS011;4037;47.980;10.172;2023-08-31T12:08:25;2.83;;;1.47;;
7983;SDS011;4037;47.980;10.172;2023-08-31T12:10:51;3.60;;;1.23;;
7983;SDS011;4037;47.980;10.172;2023-08-31T12:13:17;3.50;;;1.53;;
7983;SDS011;4037;47.980;10.172;2023-08-31T12:15:43;2.73;;;1.60;;
7983;SDS011;4037;47.980;10.172;2023-08-31T12:18:13;2.27;;;1.80;;
7983;SDS011;4037;47.980;10.172;2023-08-31T12:20:43;2.80;;;1.60;;
7983;SDS011;4037;47.980;10.172;2023-08-31T12:23:09;4.43;;;1.67;;
7983;SDS011;4037;47.980;10.172;2023-08-31T12:25:35;2.37;;;1.70;;
7983;SDS011;4037;47.980;10.172;2023-08-31T12:28:01;3.60;;;1.77;;
7983;SDS011;4037;47.980;10.172;2023-08-31T12:30:28;1.97;;;1.47;;
7983;SDS011;4037;47.980;10.172;2023-08-31T12:32:54;3.50;;;1.73;;
7983;SDS011;4037;47.980;10.172;2023-08-31T12:35:21;3.00;;;1.40;;
7983;SDS011;4037;47.980;10.172;2023-08-31T12:37:47;2.83;;;1.50;;
7983;SDS011;4037;47.980;10.172;2023-08-31T12:40:13;4.70;;;1.53;;
7983;SDS011;4037;47.980;10.172;2023-08-31T12:42:40;2.53;;;1.73;;
7983;SDS011;4037;47.980;10.172;2023-08-31T12:45:07;2.03;;;1.50;;
7983;SDS011;4037;47.980;10.172;2023-08-31T12:47:34;4.03;;;1.67;;
7983;SDS011;4037;47.980;10.172;2023-08-31T12:50:00;2.53;;;1.50;;
7983;SDS011;4037;47.980;10.172;2023-08-31T12:52:28;4.40;;;1.77;;
7983;SDS011;4037;47.980;10.172;2023-08-31T12:54:54;1.80;;;1.43;;
7983;SDS011;4037;47.980;10.172;2023-08-31T12:57:19;2.40;;;1.50;;
7983;SDS011;4037;47.980;10.172;2023-08-31T12:59:45;1.33;;;1.13;;
7983;SDS011;4037;47.980;10.172;2023-08-31T13:02:12;2.13;;;1.47;;
7983;SDS011;4037;47.980;10.172;2023-08-31T13:04:38;2.30;;;1.50;;
7983;SDS011;4037;47.980;10.172;2023-08-31T13:07:04;6.40;;;1.50;;
7983;SDS011;4037;47.980;10.172;2023-08-31T13:09:30;3.00;;;1.40;;
7983;SDS011;4037;47.980;10.172;2023-08-31T13:11:56;2.53;;;1.40;;
7983;SDS011;4037;47.980;10.172;2023-08-31T13:14:22;1.97;;;1.60;;
7983;SDS011;4037;47.980;10.172;2023-08-31T13:16:48;3.73;;;1.70;;
7983;SDS011;4037;47.980;10.172;2023-08-31T13:19:14;2.97;;;1.80;;
7983;SDS011;4037;47.980;10.172;2023-08-31T13:21:40;4.33;;;1.50;;
7983;SDS011;4037;47.980;10.172;2023-08-31T13:24:06;1.87;;;1.33;;
7983;SDS011;4037;47.980;10.172;2023-08-31T13:26:32;2.93;;;1.70;;
7983;SDS011;4037;47.980;10.172;2023-08-31T13:28:58;1.50;;;1.30;;
7983;SDS011;4037;47.980;10.172;2023-08-31T13:31:24;2.50;;;1.70;;
7983;SDS011;4037;47.980;10.172;2023-08-31T13:33:50;4.90;;;1.60;;
7983;SDS011;4037;47.980;10.172;2023-08-31T13:36:16;2.63;;;1.60;;
7983;SDS011;4037;47.980;10.172;2023-08-31T13:38:42;2.47;;;1.40;;
7983;SDS011;4037;47.980;10.172;2023-08-31T13:41:08;4.23;;;1.47;;
7983;SDS011;4037;47.980;10.172;2023-08-31T13:43:35;2.43;;;1.43;;
7983;SDS011;4037;47.980;10.172;2023-08-31T13:46:01;3.20;;;1.70;;
7983;SDS011;4037;47.980;10.172;2023-08-31T13:48:27;2.33;;;1.33;;
7983;SDS011;4037;47.980;10.172;2023-08-31T13:50:53;2.37;;;1.50;;
7983;SDS011;4037;47.980;10.172;2023-08-31T13:53:19;1.93;;;1.37;;
7983;SDS011;4037;47.980;10.172;2023-08-31T13:55:45;3.47;;;1.83;;
7983;SDS011;4037;47.980;10.172;2023-08-31T13:58:11;3.93;;;1.50;;
7983;SDS011;4037;47.980;10.172;2023-08-31T14:00:37;1.77;;;1.53;;
7983;SDS011;4037;47.980;10.172;2023-08-31T14:03:04;2.93;;;1.50;;
7983;SDS011;4037;47.980;10.172;2023-08-31T14:05:30;2.03;;;1.63;;
7983;SDS011;4037;47.980;10.172;2023-08-31T14:07:56;2.40;;;1.60;;
7983;SDS011;4037;47.980;10.172;2023-08-31T14:10:23;3.07;;;1.57;;
7983;SDS011;4037;47.980;10.172;2023-08-31T14:12:49;2.50;;;1.80;;
7983;SDS011;4037;47.980;10.172;2023-08-31T14:15:15;3.23;;;1.40;;
7983;SDS011;4037;47.980;10.172;2023-08-31T14:17:41;2.10;;;1.33;;
7983;SDS011;4037;47.980;10.172;2023-08-31T14:20:07;2.53;;;1.60;;
7983;SDS011;4037;47.980;10.172;2023-08-31T14:22:34;3.77;;;1.67;;
7983;SDS011;4037;47.980;10.172;2023-08-31T14:25:01;3.20;;;1.50;;
7983;SDS011;4037;47.980;10.172;2023-08-31T14:27:28;4.43;;;2.00;;
7983;SDS011;4037;47.980;10.172;2023-08-31T14:29:55;2.30;;;1.80;;
7983;SDS011;4037;47.980;10.172;2023-08-31T14:32:22;6.50;;;2.00;;
7983;SDS011;4037;47.980;10.172;2023-08-31T14:34:48;2.63;;;1.90;;
7983;SDS011;4037;47.980;10.172;2023-08-31T14:37:14;3.73;;;1.60;;
7983;SDS011;4037;47.980;10.172;2023-08-31T14:39:40;3.27;;;1.70;;
7983;SDS011;4037;47.980;10.172;2023-08-31T14:42:06;2.70;;;1.87;;
7983;SDS011;4037;47.980;10.172;2023-08-31T14:44:32;4.00;;;2.13;;
7983;SDS011;4037;47.980;10.172;2023-08-31T14:47:01;4.27;;;1.80;;
7983;SDS011;4037;47.980;10.172;2023-08-31T14:49:28;4.07;;;1.73;;
7983;SDS011;4037;47.980;10.172;2023-08-31T14:51:54;3.10;;;1.77;;
7983;SDS011;4037;47.980;10.172;2023-08-31T14:54:20;2.23;;;1.70;;
7983;SDS011;4037;47.980;10.172;2023-08-31T14:56:47;2.17;;;1.50;;
7983;SDS011;4037;47.980;10.172;2023-08-31T14:59:13;2.60;;;1.47;;
7983;SDS011;4037;47.980;10.172;2023-08-31T15:01:39;2.90;;;1.67;;
7983;SDS011;4037;47.980;10.172;2023-08-31T15:04:05;3.40;;;1.87;;
7983;SDS011;4037;47.980;10.172;2023-08-31T15:06:31;2.70;;;1.80;;
7983;SDS011;4037;47.980;10.172;2023-08-31T15:08:58;4.50;;;1.97;;
7983;SDS011;4037;47.980;10.172;2023-08-31T15:11:30;2.57;;;1.60;;
7983;SDS011;4037;47.980;10.172;2023-08-31T15:13:56;4.77;;;2.13;;
7983;SDS011;4037;47.980;10.172;2023-08-31T15:16:22;2.77;;;1.70;;
7983;SDS011;4037;47.980;10.172;2023-08-31T15:18:49;3.10;;;1.97;;
7983;SDS011;4037;47.980;10.172;2023-08-31T15:21:15;3.53;;;2.00;;
7983;SDS011;4037;47.980;10.172;2023-08-31T15:23:42;4.63;;;1.60;;
7983;SDS011;4037;47.980;10.172;2023-08-31T15:26:08;3.23;;;1.30;;
7983;SDS011;4037;47.980;10.172;2023-08-31T15:28:34;4.10;;;1.70;;
7983;SDS011;4037;47.980;10.172;2023-08-31T15:31:00;3.37;;;1.37;;
7983;SDS011;4037;47.980;10.172;2023-08-31T15:33:26;3.53;;;1.60;;
7983;SDS011;4037;47.980;10.172;2023-08-31T15:36:01;5.50;;;1.30;;
7983;SDS011;4037;47.980;10.172;2023-08-31T15:38:28;3.10;;;1.80;;
7983;SDS011;4037;47.980;10.172;2023-08-31T15:40:54;4.20;;;1.70;;
7983;SDS011;4037;47.980;10.172;2023-08-31T15:43:21;4.67;;;1.53;;
7983;SDS011;4037;47.980;10.172;2023-08-31T15:45:46;3.57;;;1.80;;
7983;SDS011;4037;47.980;10.172;2023-08-31T15:48:14;2.43;;;1.63;;
7983;SDS011;4037;47.980;10.172;2023-08-31T15:50:40;3.90;;;1.70;;
7983;SDS011;4037;47.980;10.172;2023-08-31T15:53:06;3.30;;;1.50;;
7983;SDS011;4037;47.980;10.172;2023-08-31T15:55:32;5.77;;;1.60;;
7983;SDS011;4037;47.980;10.172;2023-08-31T15:57:58;3.37;;;1.67;;
7983;SDS011;4037;47.980;10.172;2023-08-31T16:00:24;4.57;;;2.00;;
7983;SDS011;4037;47.980;10.172;2023-08-31T16:02:50;3.47;;;1.77;;
7983;SDS011;4037;47.980;10.172;2023-08-31T16:05:16;2.50;;;2.10;;
7983;SDS011;4037;47.980;10.172;2023-08-31T16:07:42;3.27;;;1.80;;
7983;SDS011;4037;47.980;10.172;2023-08-31T16:10:09;2.50;;;1.87;;
7983;SDS011;4037;47.980;10.172;2023-08-31T16:12:35;4.90;;;2.10;;
7983;SDS011;4037;47.980;10.172;2023-08-31T16:15:01;3.53;;;1.80;;
7983;SDS011;4037;47.980;10.172;2023-08-31T16:17:27;3.77;;;2.00;;
7983;SDS011;4037;47.980;10.172;2023-08-31T16:19:53;3.27;;;2.10;;
7983;SDS011;4037;47.980;10.172;2023-08-31T16:22:20;3.40;;;1.90;;
7983;SDS011;4037;47.980;10.172;2023-08-31T16:24:47;3.80;;;1.93;;
7983;SDS011;4037;47.980;10.172;2023-08-31T16:27:13;3.10;;;2.00;;
7983;SDS011;4037;47.980;10.172;2023-08-31T16:29:39;4.00;;;1.70;;
7983;SDS011;4037;47.980;10.172;2023-08-31T16:32:05;3.07;;;2.10;;
7983;SDS011;4037;47.980;10.172;2023-08-31T16:34:31;3.67;;;2.17;;
7983;SDS011;4037;47.980;10.172;2023-08-31T16:36:59;2.40;;;1.73;;
7983;SDS011;4037;47.980;10.172;2023-08-31T16:39:25;4.67;;;2.03;;
7983;SDS011;4037;47.980;10.172;2023-08-31T16:41:51;4.20;;;1.83;;